sensor_id;sensor_type;location;lat;lon;timestamp;temperature;humidity
12708;DHT22;6418;50.824;4.718;2024-01-15T00:02:22;0.90;99.90
12708;DHT22;6418;50.824;4.718;2024-01-15T00:04:51;0.90;99.90
12708;DHT22;6418;50.824;4.718;2024-01-15T00:07:18;0.90;99.90
12708;DHT22;6418;50.824;4.718;2024-01-15T00:09:45;0.90;99.90
12708;DHT22;6418;50.824;4.718;2024-01-15T00:12:12;0.90;99.90
12708;DHT22;6418;50.824;4.718;2024-01-15T00:14:38;0.90;99.90
12708;DHT22;6418;50.824;4.718;2024-01-15T00:17:05;1.00;99.90
12708;DHT22;6418;50.824;4.718;2024-01-15T00:19:32;1.00;99.90
12708;DHT22;6418;50.824;4.718;2024-01-15T00:22:01;1.00;99.90
12708;DHT22;6418;50.824;4.718;2024-01-15T00:24:28;1.00;99.90
12708;DHT22;6418;50.824;4.718;2024-01-15T00:26:54;1.00;99.90
12708;DHT22;6418;50.824;4.718;2024-01-15T00:29:22;1.00;99.90
12708;DHT22;6418;50.824;4.718;2024-01-15T00:31:49;1.00;99.90
12708;DHT22;6418;50.824;4.718;2024-01-15T00:34:16;1.00;99.90
12708;DHT22;6418;50.824;4.718;2024-01-15T00:36:43;1.00;99.90
12708;DHT22;6418;50.824;4.718;2024-01-15T00:39:11;1.00;99.90
12708;DHT22;6418;50.824;4.718;2024-01-15T00:41:38;1.00;99.90
12708;DHT22;6418;50.824;4.718;2024-01-15T00:44:05;1.00;99.90
12708;DHT22;6418;50.824;4.718;2024-01-15T00:46:32;1.00;99.90
12708;DHT22;6418;50.824;4.718;2024-01-15T00:48:59;1.00;99.90
12708;DHT22;6418;50.824;4.718;2024-01-15T00:51:26;1.00;99.90
12708;DHT22;6418;50.824;4.718;2024-01-15T00:53:53;1.00;99.90
12708;DHT22;6418;50.824;4.718;2024-01-15T00:56:21;1.00;99.90
12708;DHT22;6418;50.824;4.718;2024-01-15T00:58:48;1.10;99.90
12708;DHT22;6418;50.824;4.718;2024-01-15T01:01:15;1.10;99.90
12708;DHT22;6418;50.824;4.718;2024-01-15T01:03:42;1.10;99.90
12708;DHT22;6418;50.824;4.718;2024-01-15T01:06:09;1.10;99.90
12708;DHT22;6418;50.824;4.718;2024-01-15T01:08:36;1.10;99.90
12708;DHT22;6418;50.824;4.718;2024-01-15T01:11:03;1.10;99.90
12708;DHT22;6418;50.824;4.718;2024-01-15T01:13:33;1.10;99.90
12708;DHT22;6418;50.824;4.718;2024-01-15T01:16:00;1.20;99.90
12708;DHT22;6418;50.824;4.718;2024-01-15T01:18:27;1.20;99.90
12708;DHT22;6418;50.824;4.718;2024-01-15T01:20:54;1.20;99.90
12708;DHT22;6418;50.824;4.718;2024-01-15T01:23:21;1.20;99.90
12708;DHT22;6418;50.824;4.718;2024-01-15T01:25:47;1.20;99.90
12708;DHT22;6418;50.824;4.718;2024-01-15T01:28:14;1.20;99.90
12708;DHT22;6418;50.824;4.718;2024-01-15T01:30:43;1.30;99.90
12708;DHT22;6418;50.824;4.718;2024-01-15T01:33:10;1.20;99.90
12708;DHT22;6418;50.824;4.718;2024-01-15T01:35:37;1.20;99.90
12708;DHT22;6418;50.824;4.718;2024-01-15T01:38:04;1.20;99.90
12708;DHT22;6418;50.824;4.718;2024-01-15T01:40:31;1.30;99.90
12708;DHT22;6418;50.824;4.718;2024-01-15T01:42:58;1.30;99.90
12708;DHT22;6418;50.824;4.718;2024-01-15T01:45:25;1.30;99.90
12708;DHT22;6418;50.824;4.718;2024-01-15T01:48:00;1.30;99.90
12708;DHT22;6418;50.824;4.718;2024-01-15T01:50:28;1.30;99.90
12708;DHT22;6418;50.824;4.718;2024-01-15T01:52:55;1.30;99.90
12708;DHT22;6418;50.824;4.718;2024-01-15T01:55:25;1.30;99.90
12708;DHT22;6418;50.824;4.718;2024-01-15T01:57:54;1.30;99.90
12708;DHT22;6418;50.824;4.718;2024-01-15T02:00:21;1.30;99.90
12708;DHT22;6418;50.824;4.718;2024-01-15T02:02:49;1.30;99.90
12708;DHT22;6418;50.824;4.718;2024-01-15T02:05:19;1.30;99.90
12708;DHT22;6418;50.824;4.718;2024-01-15T02:07:47;1.30;99.90
12708;DHT22;6418;50.824;4.718;2024-01-15T02:10:14;1.30;99.90
12708;DHT22;6418;50.824;4.718;2024-01-15T02:12:42;1.30;99.90
12708;DHT22;6418;50.824;4.718;2024-01-15T02:15:10;1.30;99.90
12708;DHT22;6418;50.824;4.718;2024-01-15T02:17:57;1.30;99.90
12708;DHT22;6418;50.824;4.718;2024-01-15T02:20:25;1.30;99.90
12708;DHT22;6418;50.824;4.718;2024-01-15T02:22:52;1.30;99.90
12708;DHT22;6418;50.824;4.718;2024-01-15T02:25:21;1.30;99.90
12708;DHT22;6418;50.824;4.718;2024-01-15T02:27:48;1.20;99.90
12708;DHT22;6418;50.824;4.718;2024-01-15T02:30:15;1.20;99.90
12708;DHT22;6418;50.824;4.718;2024-01-15T02:32:43;1.30;99.90
12708;DHT22;6418;50.824;4.718;2024-01-15T02:35:11;1.20;99.90
12708;DHT22;6418;50.824;4.718;2024-01-15T02:37:38;1.30;99.90
12708;DHT22;6418;50.824;4.718;2024-01-15T02:40:05;1.30;99.90
12708;DHT22;6418;50.824;4.718;2024-01-15T02:42:34;1.30;99.90
12708;DHT22;6418;50.824;4.718;2024-01-15T02:45:03;1.30;99.90
12708;DHT22;6418;50.824;4.718;2024-01-15T02:47:30;1.30;99.90
12708;DHT22;6418;50.824;4.718;2024-01-15T02:49:57;1.30;99.90
12708;DHT22;6418;50.824;4.718;2024-01-15T02:52:23;1.30;99.90
12708;DHT22;6418;50.824;4.718;2024-01-15T02:54:50;1.30;99.90
12708;DHT22;6418;50.824;4.718;2024-01-15T02:57:17;1.30;99.90
12708;DHT22;6418;50.824;4.718;2024-01-15T02:59:46;1.30;99.90
12708;DHT22;6418;50.824;4.718;2024-01-15T03:02:13;1.30;99.90
12708;DHT22;6418;50.824;4.718;2024-01-15T03:04:43;1.30;99.90
12708;DHT22;6418;50.824;4.718;2024-01-15T03:07:10;1.30;99.90
12708;DHT22;6418;50.824;4.718;2024-01-15T03:09:37;1.40;99.90
12708;DHT22;6418;50.824;4.718;2024-01-15T03:12:04;1.30;99.90
12708;DHT22;6418;50.824;4.718;2024-01-15T03:14:31;1.40;99.90
12708;DHT22;6418;50.824;4.718;2024-01-15T03:16:59;1.40;99.90
12708;DHT22;6418;50.824;4.718;2024-01-15T03:19:27;1.30;99.90
12708;DHT22;6418;50.824;4.718;2024-01-15T03:21:54;1.20;99.90
12708;DHT22;6418;50.824;4.718;2024-01-15T03:24:21;1.40;99.90
12708;DHT22;6418;50.824;4.718;2024-01-15T03:26:48;1.40;99.90
12708;DHT22;6418;50.824;4.718;2024-01-15T03:29:15;1.40;99.90
12708;DHT22;6418;50.824;4.718;2024-01-15T03:31:42;1.40;99.90
12708;DHT22;6418;50.824;4.718;2024-01-15T03:34:11;1.40;99.90
12708;DHT22;6418;50.824;4.718;2024-01-15T03:36:38;1.40;99.90
12708;DHT22;6418;50.824;4.718;2024-01-15T03:39:06;1.40;99.90
12708;DHT22;6418;50.824;4.718;2024-01-15T03:41:33;1.40;99.90
12708;DHT22;6418;50.824;4.718;2024-01-15T03:44:00;1.40;99.90
12708;DHT22;6418;50.824;4.718;2024-01-15T03:46:27;1.40;99.90
12708;DHT22;6418;50.824;4.718;2024-01-15T03:48:54;1.40;99.90
12708;DHT22;6418;50.824;4.718;2024-01-15T03:51:23;1.40;99.90
12708;DHT22;6418;50.824;4.718;2024-01-15T03:53:50;1.40;99.90
12708;DHT22;6418;50.824;4.718;2024-01-15T03:56:17;1.40;99.90
12708;DHT22;6418;50.824;4.718;2024-01-15T03:58:44;1.30;99.90
12708;DHT22;6418;50.824;4.718;2024-01-15T04:01:11;1.30;99.90
12708;DHT22;6418;50.824;4.718;2024-01-15T04:03:37;1.30;99.90
12708;DHT22;6418;50.824;4.718;2024-01-15T04:06:05;1.30;99.90
12708;DHT22;6418;50.824;4.718;2024-01-15T04:08:33;1.30;99.90
12708;DHT22;6418;50.824;4.718;2024-01-15T04:11:00;1.30;99.90
12708;DHT22;6418;50.824;4.718;2024-01-15T04:13:27;1.30;99.90
12708;DHT22;6418;50.824;4.718;2024-01-15T04:15:54;1.30;99.90
12708;DHT22;6418;50.824;4.718;2024-01-15T04:18:21;1.30;99.90
12708;DHT22;6418;50.824;4.718;2024-01-15T04:20:48;1.30;99.90
12708;DHT22;6418;50.824;4.718;2024-01-15T04:23:15;1.30;99.90
12708;DHT22;6418;50.824;4.718;2024-01-15T04:25:43;1.20;99.90
12708;DHT22;6418;50.824;4.718;2024-01-15T04:28:11;1.30;99.90
12708;DHT22;6418;50.824;4.718;2024-01-15T04:30:38;1.20;99.90
12708;DHT22;6418;50.824;4.718;2024-01-15T04:33:05;1.20;99.90
12708;DHT22;6418;50.824;4.718;2024-01-15T04:35:33;1.20;99.90
12708;DHT22;6418;50.824;4.718;2024-01-15T04:38:00;1.20;99.90
12708;DHT22;6418;50.824;4.718;2024-01-15T04:40:27;1.20;99.90
12708;DHT22;6418;50.824;4.718;2024-01-15T04:42:55;1.20;99.90
12708;DHT22;6418;50.824;4.718;2024-01-15T04:45:22;1.20;99.90
12708;DHT22;6418;50.824;4.718;2024-01-15T04:47:54;1.20;99.90
12708;DHT22;6418;50.824;4.718;2024-01-15T04:50:21;1.20;99.90
12708;DHT22;6418;50.824;4.718;2024-01-15T04:52:48;1.10;99.90
12708;DHT22;6418;50.824;4.718;2024-01-15T04:55:14;1.10;99.90
12708;DHT22;6418;50.824;4.718;2024-01-15T04:57:41;1.10;99.90
12708;DHT22;6418;50.824;4.718;2024-01-15T05:00:10;1.10;99.90
12708;DHT22;6418;50.824;4.718;2024-01-15T05:02:37;1.10;99.90
12708;DHT22;6418;50.824;4.718;2024-01-15T05:05:05;1.10;99.90
12708;DHT22;6418;50.824;4.718;2024-01-15T05:07:32;1.10;99.90
12708;DHT22;6418;50.824;4.718;2024-01-15T05:09:59;1.10;99.90
12708;DHT22;6418;50.824;4.718;2024-01-15T05:12:25;1.10;99.90
12708;DHT22;6418;50.824;4.718;2024-01-15T05:14:52;1.10;99.90
12708;DHT22;6418;50.824;4.718;2024-01-15T05:17:21;1.10;99.90
12708;DHT22;6418;50.824;4.718;2024-01-15T05:19:48;1.10;99.90
12708;DHT22;6418;50.824;4.718;2024-01-15T05:22:15;1.00;99.90
12708;DHT22;6418;50.824;4.718;2024-01-15T05:24:41;1.10;99.90
12708;DHT22;6418;50.824;4.718;2024-01-15T05:27:08;1.10;99.90
12708;DHT22;6418;50.824;4.718;2024-01-15T05:29:35;1.10;99.90
12708;DHT22;6418;50.824;4.718;2024-01-15T05:32:03;1.10;99.90
12708;DHT22;6418;50.824;4.718;2024-01-15T05:34:31;1.10;99.90
12708;DHT22;6418;50.824;4.718;2024-01-15T05:36:58;1.10;99.90
12708;DHT22;6418;50.824;4.718;2024-01-15T05:39:25;1.10;99.90
12708;DHT22;6418;50.824;4.718;2024-01-15T05:41:52;1.10;99.90
12708;DHT22;6418;50.824;4.718;2024-01-15T05:44:19;1.10;99.90
12708;DHT22;6418;50.824;4.718;2024-01-15T05:46:46;1.10;99.90
12708;DHT22;6418;50.824;4.718;2024-01-15T05:49:13;1.10;99.90
12708;DHT22;6418;50.824;4.718;2024-01-15T05:51:41;1.10;99.90
12708;DHT22;6418;50.824;4.718;2024-01-15T05:54:08;1.00;99.90
12708;DHT22;6418;50.824;4.718;2024-01-15T05:56:36;1.00;99.90
12708;DHT22;6418;50.824;4.718;2024-01-15T05:59:03;1.00;99.90
12708;DHT22;6418;50.824;4.718;2024-01-15T06:01:30;1.00;99.90
12708;DHT22;6418;50.824;4.718;2024-01-15T06:03:57;1.10;99.90
12708;DHT22;6418;50.824;4.718;2024-01-15T06:06:24;1.00;99.90
12708;DHT22;6418;50.824;4.718;2024-01-15T06:08:52;1.00;99.90
12708;DHT22;6418;50.824;4.718;2024-01-15T06:11:19;1.00;99.90
12708;DHT22;6418;50.824;4.718;2024-01-15T06:13:46;1.00;99.90
12708;DHT22;6418;50.824;4.718;2024-01-15T06:16:14;1.00;99.90
12708;DHT22;6418;50.824;4.718;2024-01-15T06:18:42;1.00;99.90
12708;DHT22;6418;50.824;4.718;2024-01-15T06:21:09;1.00;99.90
12708;DHT22;6418;50.824;4.718;2024-01-15T06:23:38;0.90;99.90
12708;DHT22;6418;50.824;4.718;2024-01-15T06:26:07;1.00;99.90
12708;DHT22;6418;50.824;4.718;2024-01-15T06:28:34;1.00;99.90
12708;DHT22;6418;50.824;4.718;2024-01-15T06:31:01;1.00;99.90
12708;DHT22;6418;50.824;4.718;2024-01-15T06:33:28;0.90;99.90
12708;DHT22;6418;50.824;4.718;2024-01-15T06:35:55;0.90;99.90
12708;DHT22;6418;50.824;4.718;2024-01-15T06:38:22;0.90;99.90
12708;DHT22;6418;50.824;4.718;2024-01-15T06:40:50;0.90;99.90
12708;DHT22;6418;50.824;4.718;2024-01-15T06:43:19;0.90;99.90
12708;DHT22;6418;50.824;4.718;2024-01-15T06:45:46;0.80;99.90
12708;DHT22;6418;50.824;4.718;2024-01-15T06:48:13;0.80;99.90
12708;DHT22;6418;50.824;4.718;2024-01-15T06:50:42;0.80;99.90
12708;DHT22;6418;50.824;4.718;2024-01-15T06:53:08;0.80;99.90
12708;DHT22;6418;50.824;4.718;2024-01-15T06:55:35;0.80;99.90
12708;DHT22;6418;50.824;4.718;2024-01-15T06:58:03;0.80;99.90
12708;DHT22;6418;50.824;4.718;2024-01-15T07:00:31;0.70;99.90
12708;DHT22;6418;50.824;4.718;2024-01-15T07:02:58;0.70;99.90
12708;DHT22;6418;50.824;4.718;2024-01-15T07:05:25;0.70;99.90
12708;DHT22;6418;50.824;4.718;2024-01-15T07:07:52;0.70;99.90
12708;DHT22;6418;50.824;4.718;2024-01-15T07:10:19;0.70;99.90
12708;DHT22;6418;50.824;4.718;2024-01-15T07:12:46;0.70;99.90
12708;DHT22;6418;50.824;4.718;2024-01-15T07:15:14;0.70;99.90
12708;DHT22;6418;50.824;4.718;2024-01-15T07:17:42;0.60;99.90
12708;DHT22;6418;50.824;4.718;2024-01-15T07:20:10;0.60;99.90
12708;DHT22;6418;50.824;4.718;2024-01-15T07:22:37;0.60;99.90
12708;DHT22;6418;50.824;4.718;2024-01-15T07:25:05;0.60;99.90
12708;DHT22;6418;50.824;4.718;2024-01-15T07:27:32;0.60;99.90
12708;DHT22;6418;50.824;4.718;2024-01-15T07:29:59;0.50;99.90
12708;DHT22;6418;50.824;4.718;2024-01-15T07:32:26;0.60;99.90
12708;DHT22;6418;50.824;4.718;2024-01-15T07:34:54;0.60;99.90
12708;DHT22;6418;50.824;4.718;2024-01-15T07:37:21;0.60;99.90
12708;DHT22;6418;50.824;4.718;2024-01-15T07:39:48;0.50;99.90
12708;DHT22;6418;50.824;4.718;2024-01-15T07:42:15;0.50;99.90
12708;DHT22;6418;50.824;4.718;2024-01-15T07:44:42;0.50;99.90
12708;DHT22;6418;50.824;4.718;2024-01-15T07:47:10;0.50;99.90
12708;DHT22;6418;50.824;4.718;2024-01-15T07:49:37;0.50;99.90
12708;DHT22;6418;50.824;4.718;2024-01-15T07:52:06;0.50;99.90
12708;DHT22;6418;50.824;4.718;2024-01-15T07:54:33;0.50;99.90
12708;DHT22;6418;50.824;4.718;2024-01-15T07:57:00;0.50;99.90
12708;DHT22;6418;50.824;4.718;2024-01-15T07:59:28;0.50;99.90
12708;DHT22;6418;50.824;4.718;2024-01-15T08:01:55;0.50;99.90
12708;DHT22;6418;50.824;4.718;2024-01-15T08:04:22;0.60;99.90
12708;DHT22;6418;50.824;4.718;2024-01-15T08:06:49;0.60;99.90
12708;DHT22;6418;50.824;4.718;2024-01-15T08:09:18;0.60;99.90
12708;DHT22;6418;50.824;4.718;2024-01-15T08:11:44;0.60;99.90
12708;DHT22;6418;50.824;4.718;2024-01-15T08:14:12;0.60;99.90
12708;DHT22;6418;50.824;4.718;2024-01-15T08:16:39;0.60;99.90
12708;DHT22;6418;50.824;4.718;2024-01-15T08:19:06;0.60;99.90
12708;DHT22;6418;50.824;4.718;2024-01-15T08:21:33;0.70;99.90
12708;DHT22;6418;50.824;4.718;2024-01-15T08:24:01;0.70;99.90
12708;DHT22;6418;50.824;4.718;2024-01-15T08:26:30;0.70;99.90
12708;DHT22;6418;50.824;4.718;2024-01-15T08:28:57;0.70;99.90
12708;DHT22;6418;50.824;4.718;2024-01-15T08:31:25;0.70;99.90
12708;DHT22;6418;50.824;4.718;2024-01-15T08:33:55;0.70;99.90
12708;DHT22;6418;50.824;4.718;2024-01-15T08:36:23;0.70;99.90
12708;DHT22;6418;50.824;4.718;2024-01-15T08:38:50;0.80;99.90
12708;DHT22;6418;50.824;4.718;2024-01-15T08:41:17;0.80;99.90
12708;DHT22;6418;50.824;4.718;2024-01-15T08:43:46;0.80;99.90
12708;DHT22;6418;50.824;4.718;2024-01-15T08:46:13;0.80;99.90
12708;DHT22;6418;50.824;4.718;2024-01-15T08:48:40;0.80;99.90
12708;DHT22;6418;50.824;4.718;2024-01-15T08:51:07;0.80;99.90
12708;DHT22;6418;50.824;4.718;2024-01-15T08:53:34;0.80;99.90
12708;DHT22;6418;50.824;4.718;2024-01-15T08:56:01;0.80;99.90
12708;DHT22;6418;50.824;4.718;2024-01-15T08:58:28;0.90;99.90
12708;DHT22;6418;50.824;4.718;2024-01-15T09:00:56;0.90;99.90
12708;DHT22;6418;50.824;4.718;2024-01-15T09:03:23;0.90;99.90
12708;DHT22;6418;50.824;4.718;2024-01-15T09:05:51;0.90;99.90
12708;DHT22;6418;50.824;4.718;2024-01-15T09:08:18;0.90;99.90
12708;DHT22;6418;50.824;4.718;2024-01-15T09:10:45;1.00;99.90
12708;DHT22;6418;50.824;4.718;2024-01-15T09:13:12;1.00;99.90
12708;DHT22;6418;50.824;4.718;2024-01-15T09:15:39;1.00;99.90
12708;DHT22;6418;50.824;4.718;2024-01-15T09:18:07;1.00;99.90
12708;DHT22;6418;50.824;4.718;2024-01-15T09:20:34;1.10;99.90
12708;DHT22;6418;50.824;4.718;2024-01-15T09:23:01;1.10;99.90
12708;DHT22;6418;50.824;4.718;2024-01-15T09:25:28;1.10;99.90
12708;DHT22;6418;50.824;4.718;2024-01-15T09:27:55;1.10;99.90
12708;DHT22;6418;50.824;4.718;2024-01-15T09:30:22;1.10;99.90
12708;DHT22;6418;50.824;4.718;2024-01-15T09:32:49;1.10;99.90
12708;DHT22;6418;50.824;4.718;2024-01-15T09:35:17;1.20;99.90
12708;DHT22;6418;50.824;4.718;2024-01-15T09:37:44;1.10;99.90
12708;DHT22;6418;50.824;4.718;2024-01-15T09:40:13;1.20;99.90
12708;DHT22;6418;50.824;4.718;2024-01-15T09:42:41;1.20;99.90
12708;DHT22;6418;50.824;4.718;2024-01-15T09:45:08;1.20;99.90
12708;DHT22;6418;50.824;4.718;2024-01-15T09:47:36;1.20;99.90
12708;DHT22;6418;50.824;4.718;2024-01-15T09:50:04;1.20;99.90
12708;DHT22;6418;50.824;4.718;2024-01-15T09:52:34;1.20;99.90
12708;DHT22;6418;50.824;4.718;2024-01-15T09:55:03;1.20;99.90
12708;DHT22;6418;50.824;4.718;2024-01-15T09:57:31;1.30;99.90
12708;DHT22;6418;50.824;4.718;2024-01-15T10:00:02;1.30;99.90
12708;DHT22;6418;50.824;4.718;2024-01-15T10:02:30;1.30;99.90
12708;DHT22;6418;50.824;4.718;2024-01-15T10:04:57;1.30;99.90
12708;DHT22;6418;50.824;4.718;2024-01-15T10:07:25;1.30;99.90
12708;DHT22;6418;50.824;4.718;2024-01-15T10:09:55;1.30;99.90
12708;DHT22;6418;50.824;4.718;2024-01-15T10:12:22;1.40;99.90
12708;DHT22;6418;50.824;4.718;2024-01-15T10:14:50;1.40;99.90
12708;DHT22;6418;50.824;4.718;2024-01-15T10:17:17;1.50;99.90
12708;DHT22;6418;50.824;4.718;2024-01-15T10:19:45;1.50;99.90
12708;DHT22;6418;50.824;4.718;2024-01-15T10:22:13;1.40;99.90
12708;DHT22;6418;50.824;4.718;2024-01-15T10:24:41;1.50;99.90
12708;DHT22;6418;50.824;4.718;2024-01-15T10:27:10;1.50;99.90
12708;DHT22;6418;50.824;4.718;2024-01-15T10:29:37;1.50;99.90
12708;DHT22;6418;50.824;4.718;2024-01-15T10:32:07;1.60;99.90
12708;DHT22;6418;50.824;4.718;2024-01-15T10:34:38;1.60;99.90
12708;DHT22;6418;50.824;4.718;2024-01-15T10:37:07;1.60;99.90
12708;DHT22;6418;50.824;4.718;2024-01-15T10:39:34;1.70;99.90
12708;DHT22;6418;50.824;4.718;2024-01-15T10:42:02;1.70;99.90
12708;DHT22;6418;50.824;4.718;2024-01-15T10:44:30;1.70;99.90
12708;DHT22;6418;50.824;4.718;2024-01-15T10:46:57;1.80;99.90
12708;DHT22;6418;50.824;4.718;2024-01-15T10:49:24;1.80;99.90
12708;DHT22;6418;50.824;4.718;2024-01-15T10:51:53;1.80;99.90
12708;DHT22;6418;50.824;4.718;2024-01-15T10:54:21;1.80;99.90
12708;DHT22;6418;50.824;4.718;2024-01-15T10:56:50;1.90;99.90
12708;DHT22;6418;50.824;4.718;2024-01-15T10:59:20;1.90;99.90
12708;DHT22;6418;50.824;4.718;2024-01-15T11:01:49;1.90;99.90
12708;DHT22;6418;50.824;4.718;2024-01-15T11:04:19;1.90;99.90
12708;DHT22;6418;50.824;4.718;2024-01-15T11:06:49;1.90;99.90
12708;DHT22;6418;50.824;4.718;2024-01-15T11:09:17;2.00;99.90
12708;DHT22;6418;50.824;4.718;2024-01-15T11:11:45;2.00;99.90
12708;DHT22;6418;50.824;4.718;2024-01-15T11:14:33;2.00;99.90
12708;DHT22;6418;50.824;4.718;2024-01-15T11:17:02;2.20;99.90
12708;DHT22;6418;50.824;4.718;2024-01-15T11:19:36;2.30;99.90
12708;DHT22;6418;50.824;4.718;2024-01-15T11:22:03;2.40;99.90
12708;DHT22;6418;50.824;4.718;2024-01-15T11:24:35;2.40;99.90
12708;DHT22;6418;50.824;4.718;2024-01-15T11:27:03;2.50;99.90
12708;DHT22;6418;50.824;4.718;2024-01-15T11:29:31;2.60;99.90
12708;DHT22;6418;50.824;4.718;2024-01-15T11:32:03;2.60;99.90
12708;DHT22;6418;50.824;4.718;2024-01-15T11:34:51;2.60;99.90
12708;DHT22;6418;50.824;4.718;2024-01-15T11:37:19;2.70;99.90
12708;DHT22;6418;50.824;4.718;2024-01-15T11:39:47;2.70;99.90
12708;DHT22;6418;50.824;4.718;2024-01-15T11:42:14;2.70;99.90
12708;DHT22;6418;50.824;4.718;2024-01-15T11:44:41;2.70;99.90
12708;DHT22;6418;50.824;4.718;2024-01-15T11:47:11;2.70;99.90
12708;DHT22;6418;50.824;4.718;2024-01-15T11:49:59;2.80;99.90
12708;DHT22;6418;50.824;4.718;2024-01-15T11:52:32;2.80;99.90
12708;DHT22;6418;50.824;4.718;2024-01-15T11:55:03;2.80;99.90
12708;DHT22;6418;50.824;4.718;2024-01-15T11:57:40;2.80;99.90
12708;DHT22;6418;50.824;4.718;2024-01-15T12:00:09;2.80;99.90
12708;DHT22;6418;50.824;4.718;2024-01-15T12:02:39;2.80;99.90
12708;DHT22;6418;50.824;4.718;2024-01-15T12:05:07;2.80;99.90
12708;DHT22;6418;50.824;4.718;2024-01-15T12:07:34;2.80;99.90
12708;DHT22;6418;50.824;4.718;2024-01-15T12:10:01;2.80;99.90
12708;DHT22;6418;50.824;4.718;2024-01-15T12:12:37;2.80;99.90
12708;DHT22;6418;50.824;4.718;2024-01-15T12:15:07;2.80;99.90
12708;DHT22;6418;50.824;4.718;2024-01-15T12:17:35;2.80;99.90
12708;DHT22;6418;50.824;4.718;2024-01-15T12:20:03;2.90;99.90
12708;DHT22;6418;50.824;4.718;2024-01-15T12:22:31;2.90;99.90
12708;DHT22;6418;50.824;4.718;2024-01-15T12:24:58;2.90;99.90
12708;DHT22;6418;50.824;4.718;2024-01-15T12:27:26;3.00;99.90
12708;DHT22;6418;50.824;4.718;2024-01-15T12:29:53;2.90;99.90
12708;DHT22;6418;50.824;4.718;2024-01-15T12:32:20;2.90;99.90
12708;DHT22;6418;50.824;4.718;2024-01-15T12:34:49;3.00;99.90
12708;DHT22;6418;50.824;4.718;2024-01-15T12:37:20;3.00;99.90
12708;DHT22;6418;50.824;4.718;2024-01-15T12:39:47;3.10;99.90
12708;DHT22;6418;50.824;4.718;2024-01-15T12:42:14;3.10;99.90
12708;DHT22;6418;50.824;4.718;2024-01-15T12:44:42;3.10;99.90
12708;DHT22;6418;50.824;4.718;2024-01-15T12:47:09;3.10;99.90
12708;DHT22;6418;50.824;4.718;2024-01-15T12:49:36;3.20;99.90
12708;DHT22;6418;50.824;4.718;2024-01-15T12:52:08;3.20;99.90
12708;DHT22;6418;50.824;4.718;2024-01-15T12:54:36;3.20;99.90
12708;DHT22;6418;50.824;4.718;2024-01-15T12:57:04;3.20;99.90
12708;DHT22;6418;50.824;4.718;2024-01-15T12:59:31;3.20;99.90
12708;DHT22;6418;50.824;4.718;2024-01-15T13:01:58;3.20;99.90
12708;DHT22;6418;50.824;4.718;2024-01-15T13:04:25;3.20;99.90
12708;DHT22;6418;50.824;4.718;2024-01-15T13:06:52;3.10;99.90
12708;DHT22;6418;50.824;4.718;2024-01-15T13:09:19;3.00;99.90
12708;DHT22;6418;50.824;4.718;2024-01-15T13:11:47;3.00;99.90
12708;DHT22;6418;50.824;4.718;2024-01-15T13:14:14;3.10;99.90
12708;DHT22;6418;50.824;4.718;2024-01-15T13:16:41;3.10;99.90
12708;DHT22;6418;50.824;4.718;2024-01-15T13:19:09;3.20;99.90
12708;DHT22;6418;50.824;4.718;2024-01-15T13:21:36;3.20;99.90
12708;DHT22;6418;50.824;4.718;2024-01-15T13:24:04;3.10;99.90
12708;DHT22;6418;50.824;4.718;2024-01-15T13:26:31;3.10;99.90
12708;DHT22;6418;50.824;4.718;2024-01-15T13:29:00;2.90;99.90
12708;DHT22;6418;50.824;4.718;2024-01-15T13:31:27;3.00;99.90
12708;DHT22;6418;50.824;4.718;2024-01-15T13:33:54;2.90;99.90
12708;DHT22;6418;50.824;4.718;2024-01-15T13:36:22;2.10;99.90
12708;DHT22;6418;50.824;4.718;2024-01-15T13:38:49;2.00;99.90
12708;DHT22;6418;50.824;4.718;2024-01-15T13:41:16;1.80;99.90
12708;DHT22;6418;50.824;4.718;2024-01-15T13:43:46;1.80;99.90
12708;DHT22;6418;50.824;4.718;2024-01-15T13:46:14;1.50;99.90
12708;DHT22;6418;50.824;4.718;2024-01-15T13:48:41;1.60;99.90
12708;DHT22;6418;50.824;4.718;2024-01-15T13:51:08;1.60;99.90
12708;DHT22;6418;50.824;4.718;2024-01-15T13:53:35;1.60;99.90
12708;DHT22;6418;50.824;4.718;2024-01-15T13:56:03;1.50;99.90
12708;DHT22;6418;50.824;4.718;2024-01-15T13:58:30;1.50;99.90
12708;DHT22;6418;50.824;4.718;2024-01-15T14:00:58;1.50;99.90
12708;DHT22;6418;50.824;4.718;2024-01-15T14:03:26;1.40;99.90
12708;DHT22;6418;50.824;4.718;2024-01-15T14:05:53;1.30;99.90
12708;DHT22;6418;50.824;4.718;2024-01-15T14:08:20;1.20;99.90
12708;DHT22;6418;50.824;4.718;2024-01-15T14:10:47;1.20;99.90
12708;DHT22;6418;50.824;4.718;2024-01-15T14:13:14;1.10;99.90
12708;DHT22;6418;50.824;4.718;2024-01-15T14:15:41;1.10;99.90
12708;DHT22;6418;50.824;4.718;2024-01-15T14:18:08;1.10;99.90
12708;DHT22;6418;50.824;4.718;2024-01-15T14:20:36;0.80;99.90
12708;DHT22;6418;50.824;4.718;2024-01-15T14:23:03;1.10;99.90
12708;DHT22;6418;50.824;4.718;2024-01-15T14:25:30;1.00;99.90
12708;DHT22;6418;50.824;4.718;2024-01-15T14:27:57;1.00;99.90
12708;DHT22;6418;50.824;4.718;2024-01-15T14:30:24;1.00;99.90
12708;DHT22;6418;50.824;4.718;2024-01-15T14:32:51;1.10;99.90
12708;DHT22;6418;50.824;4.718;2024-01-15T14:35:18;1.10;99.90
12708;DHT22;6418;50.824;4.718;2024-01-15T14:37:46;1.10;99.90
12708;DHT22;6418;50.824;4.718;2024-01-15T14:40:14;0.90;99.90
12708;DHT22;6418;50.824;4.718;2024-01-15T14:42:41;1.10;99.90
12708;DHT22;6418;50.824;4.718;2024-01-15T14:45:09;1.10;99.90
12708;DHT22;6418;50.824;4.718;2024-01-15T14:47:37;1.10;99.90
12708;DHT22;6418;50.824;4.718;2024-01-15T14:50:05;1.10;99.90
12708;DHT22;6418;50.824;4.718;2024-01-15T14:52:32;1.10;99.90
12708;DHT22;6418;50.824;4.718;2024-01-15T14:55:02;1.10;99.90
12708;DHT22;6418;50.824;4.718;2024-01-15T14:57:29;1.10;99.90
12708;DHT22;6418;50.824;4.718;2024-01-15T14:59:56;1.10;99.90
12708;DHT22;6418;50.824;4.718;2024-01-15T15:02:24;1.10;99.90
12708;DHT22;6418;50.824;4.718;2024-01-15T15:04:53;1.10;99.90
12708;DHT22;6418;50.824;4.718;2024-01-15T15:07:21;1.00;99.90
12708;DHT22;6418;50.824;4.718;2024-01-15T15:09:48;1.00;99.90
12708;DHT22;6418;50.824;4.718;2024-01-15T15:12:18;1.10;99.90
12708;DHT22;6418;50.824;4.718;2024-01-15T15:14:44;1.00;99.90
12708;DHT22;6418;50.824;4.718;2024-01-15T15:17:11;1.00;99.90
12708;DHT22;6418;50.824;4.718;2024-01-15T15:19:38;1.00;99.90
12708;DHT22;6418;50.824;4.718;2024-01-15T15:22:06;1.00;99.90
12708;DHT22;6418;50.824;4.718;2024-01-15T15:24:36;1.00;99.90
12708;DHT22;6418;50.824;4.718;2024-01-15T15:27:03;1.00;99.90
12708;DHT22;6418;50.824;4.718;2024-01-15T15:29:32;1.00;99.90
12708;DHT22;6418;50.824;4.718;2024-01-15T15:32:00;1.00;99.90
12708;DHT22;6418;50.824;4.718;2024-01-15T15:34:28;1.00;99.90
12708;DHT22;6418;50.824;4.718;2024-01-15T15:36:55;1.00;99.90
12708;DHT22;6418;50.824;4.718;2024-01-15T15:39:22;1.00;99.90
12708;DHT22;6418;50.824;4.718;2024-01-15T15:41:49;1.00;99.90
12708;DHT22;6418;50.824;4.718;2024-01-15T15:44:16;1.00;99.90
12708;DHT22;6418;50.824;4.718;2024-01-15T15:46:44;1.00;99.90
12708;DHT22;6418;50.824;4.718;2024-01-15T15:49:11;1.00;99.90
12708;DHT22;6418;50.824;4.718;2024-01-15T15:51:40;1.00;99.90
12708;DHT22;6418;50.824;4.718;2024-01-15T15:54:07;0.90;99.90
12708;DHT22;6418;50.824;4.718;2024-01-15T15:56:34;1.00;99.90
12708;DHT22;6418;50.824;4.718;2024-01-15T15:59:04;1.00;99.90
12708;DHT22;6418;50.824;4.718;2024-01-15T16:01:32;1.00;99.90
12708;DHT22;6418;50.824;4.718;2024-01-15T16:04:00;1.00;99.90
12708;DHT22;6418;50.824;4.718;2024-01-15T16:06:29;1.00;99.90